createdAt,value
2023-04-16T00:00:39.778Z,6.50
2023-04-16T00:03:11.058Z,7.10
2023-04-16T00:05:42.212Z,6.70
2023-04-16T00:08:13.360Z,6.60
2023-04-16T00:10:44.543Z,6.40
2023-04-16T00:13:15.601Z,6.60
2023-04-16T00:15:46.607Z,5.90
2023-04-16T00:18:17.572Z,8.90
2023-04-16T00:20:48.885Z,9.70
2023-04-16T00:23:19.911Z,8.30
2023-04-16T00:25:50.884Z,6.00
2023-04-16T00:28:21.897Z,7.30
2023-04-16T00:30:53.042Z,10.30
2023-04-16T00:33:23.967Z,6.10
2023-04-16T00:35:55.022Z,6.60
2023-04-16T00:38:30.053Z,8.40
2023-04-16T00:41:01.150Z,6.80
2023-04-16T00:43:32.169Z,10.00
2023-04-16T00:46:06.199Z,6.00
2023-04-16T00:48:39.096Z,11.70
2023-04-16T00:51:11.727Z,5.70
2023-04-16T00:53:43.087Z,7.30
2023-04-16T00:56:14.937Z,9.30
2023-04-16T00:58:45.887Z,7.60
2023-04-16T01:01:17.419Z,8.20
2023-04-16T01:03:50.142Z,6.10
2023-04-16T01:06:21.764Z,5.30
2023-04-16T01:08:53.070Z,7.70
2023-04-16T01:11:24.207Z,5.90
2023-04-16T01:13:55.188Z,7.10
2023-04-16T01:16:27.063Z,7.60
2023-04-16T01:18:58.074Z,5.70
2023-04-16T01:21:29.156Z,6.00
2023-04-16T01:24:03.155Z,6.60
2023-04-16T01:26:34.320Z,8.80
2023-04-16T01:29:06.544Z,7.10
2023-04-16T01:31:37.635Z,9.20
2023-04-16T01:34:13.963Z,6.50
2023-04-16T01:36:45.713Z,7.20
2023-04-16T01:39:17.319Z,9.40
2023-04-16T01:41:48.867Z,7.90
2023-04-16T01:47:01.569Z,8.10
2023-04-16T01:49:32.488Z,7.40
2023-04-16T01:52:03.276Z,7.40
2023-04-16T01:54:34.009Z,9.10
2023-04-16T01:57:06.296Z,8.60
2023-04-16T01:59:37.269Z,8.00
2023-04-16T02:02:12.298Z,6.50
2023-04-16T02:04:44.416Z,5.10
2023-04-16T02:07:16.030Z,5.50
2023-04-16T02:09:46.782Z,5.70
2023-04-16T02:12:18.458Z,6.40
2023-04-16T02:14:51.558Z,6.00
2023-04-16T02:17:24.199Z,6.00
2023-04-16T02:20:08.368Z,11.90
2023-04-16T02:22:43.565Z,5.70
2023-04-16T02:25:16.824Z,5.70
2023-04-16T02:27:48.142Z,6.90
2023-04-16T02:30:40.036Z,5.20
2023-04-16T02:33:12.214Z,7.20
2023-04-16T02:35:45.796Z,6.20
2023-04-16T02:38:16.536Z,8.60
2023-04-16T02:40:48.399Z,7.00
2023-04-16T02:43:20.133Z,6.40
2023-04-16T02:45:51.405Z,8.10
2023-04-16T02:48:22.862Z,5.80
2023-04-16T02:50:53.606Z,7.00
2023-04-16T02:53:25.069Z,7.60
2023-04-16T02:55:56.722Z,7.30
2023-04-16T02:58:28.539Z,9.90
2023-04-16T03:00:59.307Z,7.80
2023-04-16T03:03:30.039Z,9.80
2023-04-16T03:06:00.787Z,9.80
2023-04-16T03:08:31.534Z,6.20
2023-04-16T03:11:02.475Z,9.30
2023-04-16T03:13:33.872Z,7.40
2023-04-16T03:16:04.639Z,8.10
2023-04-16T03:18:35.522Z,9.50
2023-04-16T03:21:07.439Z,8.50
2023-04-16T03:23:38.398Z,9.30
2023-04-16T03:26:09.223Z,13.20
2023-04-16T03:28:40.020Z,10.80
2023-04-16T03:31:11.537Z,10.50
2023-04-16T03:33:42.914Z,9.60
2023-04-16T03:36:13.936Z,9.70
2023-04-16T03:38:44.921Z,12.80
2023-04-16T03:41:16.331Z,9.20
2023-04-16T03:43:47.233Z,11.80
2023-04-16T03:46:17.964Z,11.30
2023-04-16T03:48:49.030Z,10.60
2023-04-16T03:51:20.094Z,11.10
2023-04-16T03:53:51.138Z,11.50
2023-04-16T03:56:21.968Z,15.70
2023-04-16T03:58:56.121Z,10.20
2023-04-16T04:01:26.906Z,12.50
2023-04-16T04:03:57.986Z,11.60
2023-04-16T04:06:29.220Z,13.40
2023-04-16T04:09:00.007Z,13.90
2023-04-16T04:11:30.948Z,14.60
2023-04-16T04:14:01.742Z,12.30
2023-04-16T04:16:33.060Z,9.80
2023-04-16T04:19:03.960Z,11.80
2023-04-16T04:21:35.104Z,12.10
2023-04-16T04:24:07.821Z,10.70
2023-04-16T04:26:38.739Z,13.40
2023-04-16T04:29:09.810Z,12.60
2023-04-16T04:31:41.055Z,12.00
2023-04-16T04:34:12.000Z,11.00
2023-04-16T04:36:42.825Z,11.00
2023-04-16T04:39:14.327Z,11.80
2023-04-16T04:41:46.745Z,12.10
2023-04-16T04:44:17.619Z,13.00
2023-04-16T04:46:48.390Z,10.70
2023-04-16T04:49:19.284Z,13.20
2023-04-16T04:51:50.966Z,12.00
2023-04-16T04:54:22.855Z,12.80
2023-04-16T04:56:54.125Z,11.30
2023-04-16T04:59:25.434Z,11.90
2023-04-16T05:01:56.447Z,10.80
2023-04-16T05:04:27.556Z,11.50
2023-04-16T05:06:58.373Z,12.20
2023-04-16T05:09:29.115Z,11.60
2023-04-16T05:11:59.922Z,15.30
2023-04-16T05:14:30.838Z,11.90
2023-04-16T05:17:02.413Z,12.80
2023-04-16T05:19:33.243Z,16.10
2023-04-16T05:22:04.203Z,9.90
2023-04-16T05:24:35.031Z,10.60
2023-04-16T05:27:05.834Z,11.70
2023-04-16T05:29:37.502Z,12.30
2023-04-16T05:32:08.408Z,10.30
2023-04-16T05:34:39.089Z,10.30
2023-04-16T05:37:09.897Z,12.30
2023-04-16T05:39:40.617Z,10.20
2023-04-16T05:42:11.438Z,17.60
2023-04-16T05:44:43.256Z,12.20
2023-04-16T05:47:13.953Z,12.60
2023-04-16T05:49:44.640Z,10.10
2023-04-16T05:52:15.481Z,11.20
2023-04-16T05:54:46.485Z,12.30
2023-04-16T05:57:17.486Z,12.40
2023-04-16T05:59:48.216Z,16.40
2023-04-16T06:02:44.854Z,11.90
2023-04-16T06:05:50.569Z,10.30
2023-04-16T06:08:28.641Z,13.70
2023-04-16T06:11:09.919Z,11.40
2023-04-16T06:13:41.782Z,10.10
2023-04-16T06:16:24.036Z,12.00
2023-04-16T06:18:55.130Z,10.80
2023-04-16T06:21:28.260Z,10.50
2023-04-16T06:23:59.393Z,15.30
2023-04-16T06:26:33.091Z,13.00
2023-04-16T06:29:06.315Z,11.40
2023-04-16T06:31:37.174Z,10.20
2023-04-16T06:34:07.987Z,11.60
2023-04-16T06:36:39.352Z,11.20
2023-04-16T06:39:10.347Z,13.30
2023-04-16T06:41:41.671Z,11.30
2023-04-16T06:44:12.535Z,12.00
2023-04-16T06:46:43.356Z,13.80
2023-04-16T06:49:14.107Z,11.30
2023-04-16T06:51:48.479Z,11.30
2023-04-16T06:54:19.854Z,11.60
2023-04-16T06:56:50.943Z,10.90
2023-04-16T06:59:21.718Z,11.10
2023-04-16T07:01:52.791Z,10.20
2023-04-16T07:04:24.366Z,12.10
2023-04-16T07:06:56.158Z,14.50
2023-04-16T07:09:38.850Z,13.00
2023-04-16T07:12:16.878Z,12.50
2023-04-16T07:14:47.882Z,14.30
2023-04-16T07:17:18.942Z,12.80
2023-04-16T07:19:49.728Z,10.60
2023-04-16T07:22:32.665Z,11.70
2023-04-16T07:25:07.509Z,11.30
2023-04-16T07:27:38.650Z,12.80
2023-04-16T07:30:12.126Z,13.10
2023-04-16T07:32:42.974Z,10.50
2023-04-16T07:35:16.885Z,10.50
2023-04-16T07:37:47.630Z,10.60
2023-04-16T07:40:18.692Z,10.00
2023-04-16T07:42:49.456Z,10.20
2023-04-16T07:45:20.886Z,12.60
2023-04-16T07:47:51.731Z,9.40
2023-04-16T07:50:22.531Z,10.80
2023-04-16T07:52:53.915Z,11.00
2023-04-16T07:55:25.010Z,12.80
2023-04-16T07:57:57.955Z,10.40
2023-04-16T08:00:28.679Z,11.70
2023-04-16T08:03:00.749Z,10.00
2023-04-16T08:05:31.898Z,10.60
2023-04-16T08:08:03.986Z,12.90
2023-04-16T08:10:35.733Z,37.30
2023-04-16T08:13:08.703Z,15.10
2023-04-16T08:15:39.548Z,9.20
2023-04-16T08:18:13.020Z,10.90
2023-04-16T08:20:44.077Z,11.10
2023-04-16T08:23:14.827Z,11.50
2023-04-16T08:25:56.589Z,10.00
2023-04-16T08:28:27.232Z,12.30
2023-04-16T08:30:58.921Z,12.00
2023-04-16T08:33:29.719Z,11.60
2023-04-16T08:36:00.567Z,11.40
2023-04-16T08:38:32.827Z,11.30
2023-04-16T08:41:07.291Z,17.20
2023-04-16T08:43:46.010Z,10.50
2023-04-16T08:46:18.672Z,11.30
2023-04-16T08:48:55.116Z,13.60
2023-04-16T08:51:27.445Z,11.30
2023-04-16T08:54:05.079Z,10.60
2023-04-16T08:56:42.906Z,11.80
2023-04-16T08:59:13.918Z,11.60
2023-04-16T09:01:46.956Z,11.80
2023-04-16T09:04:18.801Z,11.30
2023-04-16T09:06:51.938Z,11.10
2023-04-16T09:09:23.982Z,17.10
2023-04-16T09:11:55.965Z,13.50
2023-04-16T09:14:28.046Z,14.50
2023-04-16T09:17:01.448Z,12.20
2023-04-16T09:19:32.185Z,11.90
2023-04-16T09:22:03.059Z,10.80
2023-04-16T09:24:35.568Z,9.90
2023-04-16T09:27:06.668Z,9.90
2023-04-16T09:29:39.366Z,8.90
2023-04-16T09:32:12.612Z,11.60
2023-04-16T09:35:00.788Z,17.10
2023-04-16T09:37:32.455Z,10.90
2023-04-16T09:40:04.752Z,12.00
2023-04-16T09:42:37.016Z,8.70
2023-04-16T09:45:09.328Z,10.10
2023-04-16T09:47:44.716Z,8.90
2023-04-16T09:50:20.041Z,8.20
2023-04-16T09:53:04.864Z,8.40
2023-04-16T09:55:35.555Z,8.60
2023-04-16T09:58:06.269Z,8.90
2023-04-16T10:00:43.706Z,9.10
2023-04-16T10:03:14.897Z,9.00
2023-04-16T10:05:45.774Z,10.20
2023-04-16T10:08:23.014Z,9.40
2023-04-16T10:11:00.021Z,12.60
2023-04-16T10:13:35.105Z,11.00
2023-04-16T10:16:09.073Z,16.70
2023-04-16T10:22:32.683Z,8.10
2023-04-16T10:25:07.697Z,9.20
2023-04-16T10:27:42.247Z,9.40
2023-04-16T10:30:18.171Z,10.70
2023-04-16T10:33:10.388Z,9.10
2023-04-16T10:37:36.542Z,12.80
2023-04-16T10:39:29.218Z,8.90
2023-04-16T10:42:12.939Z,10.60
2023-04-16T10:44:45.651Z,9.00
2023-04-16T10:47:30.637Z,11.30
2023-04-16T10:50:20.671Z,10.50
2023-04-16T10:55:21.353Z,9.20
2023-04-16T10:57:54.112Z,9.60
2023-04-16T11:00:26.377Z,8.80
2023-04-16T11:02:57.391Z,10.20
2023-04-16T11:05:47.987Z,10.70
2023-04-16T11:08:18.985Z,13.70
2023-04-16T11:10:50.429Z,15.00
2023-04-16T11:13:22.783Z,9.50
2023-04-16T11:15:57.781Z,9.90
2023-04-16T11:21:10.877Z,8.00
2023-04-16T11:23:56.849Z,7.80
2023-04-16T11:26:32.943Z,9.50
2023-04-16T11:29:14.706Z,7.50
2023-04-16T11:31:51.011Z,9.00
2023-04-16T11:34:22.480Z,7.70
2023-04-16T11:36:54.221Z,8.60
2023-04-16T11:39:31.467Z,10.20
2023-04-16T11:42:04.532Z,8.00
2023-04-16T11:44:35.289Z,8.70
2023-04-16T11:47:08.639Z,9.30
2023-04-16T11:49:39.358Z,11.00
2023-04-16T11:52:10.642Z,9.90
2023-04-16T11:54:53.218Z,8.20
2023-04-16T11:57:32.171Z,8.60
2023-04-16T12:00:07.437Z,8.00
2023-04-16T12:02:47.999Z,8.80
2023-04-16T12:05:48.032Z,9.30
2023-04-16T12:08:34.072Z,9.50
2023-04-16T12:11:09.625Z,9.30
2023-04-16T12:14:06.752Z,7.90
2023-04-16T12:16:44.235Z,8.60
2023-04-16T12:19:23.758Z,7.90
2023-04-16T12:21:55.215Z,8.20
2023-04-16T12:24:53.892Z,8.50
2023-04-16T12:27:28.896Z,8.90
2023-04-16T12:30:18.286Z,7.90
2023-04-16T12:33:02.163Z,9.80
2023-04-16T12:35:34.804Z,8.70
2023-04-16T12:38:16.108Z,9.00
2023-04-16T12:40:58.533Z,8.20
2023-04-16T12:43:34.222Z,12.90
2023-04-16T12:46:11.394Z,9.50
2023-04-16T12:48:54.930Z,8.40
2023-04-16T12:51:31.994Z,8.00
2023-04-16T12:54:03.443Z,7.90
2023-04-16T12:56:39.568Z,8.10
2023-04-16T12:59:15.201Z,17.40
2023-04-16T13:12:29.229Z,8.70
2023-04-16T13:14:59.937Z,7.70
2023-04-16T13:17:31.413Z,8.20
2023-04-16T13:20:17.868Z,9.20
2023-04-16T13:22:51.856Z,8.10
2023-04-16T13:25:25.447Z,12.30
2023-04-16T13:28:02.648Z,7.60
2023-04-16T13:30:36.912Z,8.10
2023-04-16T13:33:09.368Z,7.70
2023-04-16T13:35:48.316Z,6.40
2023-04-16T13:38:24.239Z,10.40
2023-04-16T13:40:57.206Z,10.30
2023-04-16T13:43:30.624Z,8.60
2023-04-16T13:46:14.457Z,7.40
2023-04-16T13:48:55.858Z,7.50
2023-04-16T13:51:38.399Z,9.60
2023-04-16T13:54:13.349Z,7.20
2023-04-16T13:56:48.026Z,7.60
2023-04-16T13:59:37.235Z,8.30
2023-04-16T14:02:10.312Z,7.10
2023-04-16T14:04:55.166Z,7.20
2023-04-16T14:07:27.860Z,9.20
2023-04-16T14:10:03.443Z,9.10
2023-04-16T14:12:38.229Z,8.40
2023-04-16T14:15:17.139Z,7.60
2023-04-16T14:17:53.513Z,7.60
2023-04-16T14:20:25.909Z,6.70
2023-04-16T14:22:58.452Z,6.70
2023-04-16T14:25:41.976Z,9.60
2023-04-16T14:28:22.893Z,7.00
2023-04-16T14:30:53.928Z,6.80
2023-04-16T14:36:31.307Z,7.00
2023-04-16T14:39:05.010Z,6.60
2023-04-16T14:41:35.980Z,6.80
2023-04-16T14:44:16.130Z,12.40
2023-04-16T14:47:03.166Z,7.10
2023-04-16T14:49:34.631Z,7.20
2023-04-16T14:52:07.235Z,11.00
2023-04-16T14:54:38.991Z,8.90
2023-04-16T14:57:09.867Z,7.70
2023-04-16T14:59:41.491Z,7.40
2023-04-16T15:02:12.506Z,7.00
2023-04-16T15:04:43.913Z,8.60
2023-04-16T15:07:14.828Z,7.30
2023-04-16T15:09:45.735Z,7.00
2023-04-16T15:12:19.091Z,7.50
2023-04-16T15:14:50.540Z,6.70
2023-04-16T15:17:22.081Z,7.80
2023-04-16T15:19:53.780Z,8.70
2023-04-16T15:22:29.933Z,7.10
2023-04-16T15:25:07.492Z,9.10
2023-04-16T15:27:38.771Z,9.40
2023-04-16T15:30:12.674Z,8.60
2023-04-16T15:32:44.589Z,7.10
2023-04-16T15:35:16.140Z,7.40
2023-04-16T15:37:47.014Z,8.60
2023-04-16T15:40:19.068Z,10.00
2023-04-16T15:42:50.047Z,7.50
2023-04-16T15:45:21.376Z,7.80
2023-04-16T15:47:52.450Z,8.50
2023-04-16T15:50:23.336Z,9.10
2023-04-16T15:52:54.348Z,10.60
2023-04-16T15:55:26.329Z,7.00
2023-04-16T15:57:57.343Z,12.20
2023-04-16T16:00:28.367Z,7.00
2023-04-16T16:02:59.568Z,8.60
2023-04-16T16:05:30.648Z,7.70
2023-04-16T16:08:01.859Z,8.00
2023-04-16T16:10:35.270Z,8.00
2023-04-16T16:13:11.052Z,8.60
2023-04-16T16:15:48.176Z,10.70
2023-04-16T16:18:19.053Z,9.70
2023-04-16T16:20:57.439Z,10.90
2023-04-16T16:23:28.674Z,13.10
2023-04-16T16:26:06.165Z,9.50
2023-04-16T16:28:38.169Z,16.30
2023-04-16T16:31:09.277Z,10.50
2023-04-16T16:33:40.874Z,9.20
2023-04-16T16:36:14.332Z,9.70
2023-04-16T16:38:47.530Z,10.00
2023-04-16T16:41:18.459Z,10.40
2023-04-16T16:43:50.354Z,16.10
2023-04-16T16:46:21.744Z,9.90
2023-04-16T16:48:53.141Z,12.30
2023-04-16T16:51:23.889Z,9.50
2023-04-16T16:53:55.170Z,9.10
2023-04-16T16:56:26.048Z,11.10
2023-04-16T16:58:57.772Z,9.80
2023-04-16T17:01:31.484Z,10.00
2023-04-16T17:04:02.885Z,11.10
2023-04-16T17:06:33.943Z,9.80
2023-04-16T17:09:04.861Z,11.90
2023-04-16T17:11:40.227Z,10.40
2023-04-16T17:14:11.051Z,9.20
2023-04-16T17:16:42.144Z,10.00
2023-04-16T17:19:13.105Z,10.10
2023-04-16T17:21:46.766Z,11.80
2023-04-16T17:24:18.082Z,12.50
2023-04-16T17:26:51.311Z,11.00
2023-04-16T17:29:26.146Z,14.30
2023-04-16T17:31:57.514Z,13.30
2023-04-16T17:34:28.387Z,11.50
2023-04-16T17:36:59.182Z,10.00
2023-04-16T17:39:29.896Z,13.00
2023-04-16T17:42:03.993Z,12.90
2023-04-16T17:44:34.861Z,10.30
2023-04-16T17:47:07.460Z,11.70
2023-04-16T17:49:39.707Z,11.90
2023-04-16T17:52:14.941Z,11.70
2023-04-16T17:54:48.630Z,11.40
2023-04-16T17:57:22.449Z,12.00
2023-04-16T17:59:53.765Z,25.60
2023-04-16T18:02:24.893Z,15.60
2023-04-16T18:04:57.744Z,13.80
2023-04-16T18:07:29.353Z,10.90
2023-04-16T18:10:00.350Z,12.20
2023-04-16T18:12:31.554Z,11.70
2023-04-16T18:15:02.482Z,13.70
2023-04-16T18:17:33.487Z,11.70
2023-04-16T18:20:17.681Z,13.50
2023-04-16T18:22:48.712Z,20.50
2023-04-16T18:25:32.200Z,14.40
2023-04-16T18:28:06.393Z,12.30
2023-04-16T18:30:40.524Z,13.90
2023-04-16T18:33:39.008Z,14.70
2023-04-16T18:36:03.957Z,12.00
2023-04-16T18:38:35.052Z,13.40
2023-04-16T18:41:06.382Z,15.00
2023-04-16T18:43:37.422Z,15.60
2023-04-16T18:46:08.641Z,13.90
2023-04-16T18:48:39.722Z,14.60
2023-04-16T18:51:12.935Z,20.70
2023-04-16T18:53:45.934Z,17.20
2023-04-16T18:56:17.125Z,13.30
2023-04-16T18:58:49.424Z,13.10
2023-04-16T19:01:20.898Z,17.50
2023-04-16T19:03:53.624Z,16.20
2023-04-16T19:06:27.848Z,14.50
2023-04-16T19:08:59.197Z,17.90
2023-04-16T19:11:29.994Z,13.70
2023-04-16T19:14:03.268Z,14.80
2023-04-16T19:16:34.156Z,16.10
2023-04-16T19:19:05.409Z,12.70
2023-04-16T19:21:43.419Z,12.90
2023-04-16T19:24:14.831Z,14.20
2023-04-16T19:26:46.139Z,16.50
2023-04-16T19:29:18.122Z,15.70
2023-04-16T19:31:49.247Z,14.70
2023-04-16T19:34:20.840Z,15.20
2023-04-16T19:36:52.086Z,13.50
2023-04-16T19:39:23.155Z,16.90
2023-04-16T19:41:54.432Z,14.10
2023-04-16T19:44:25.836Z,17.50
2023-04-16T19:46:56.988Z,15.80
2023-04-16T19:49:35.914Z,17.60
2023-04-16T19:52:07.280Z,15.30
2023-04-16T19:54:38.594Z,17.40
2023-04-16T19:57:09.633Z,15.40
2023-04-16T19:59:40.737Z,18.80
2023-04-16T20:02:11.851Z,17.00
2023-04-16T20:04:43.422Z,16.50
2023-04-16T20:07:14.517Z,17.20
2023-04-16T20:09:45.824Z,15.70
2023-04-16T20:12:16.800Z,17.00
2023-04-16T20:14:50.411Z,16.60
2023-04-16T20:17:21.743Z,18.00
2023-04-16T20:19:53.024Z,24.50
2023-04-16T20:22:24.141Z,20.40
2023-04-16T20:24:56.518Z,19.80
2023-04-16T20:27:27.647Z,17.80
2023-04-16T20:29:58.866Z,19.90
2023-04-16T20:32:31.038Z,24.10
2023-04-16T20:35:04.295Z,18.90
2023-04-16T20:37:38.165Z,16.10
2023-04-16T20:40:14.052Z,20.60
2023-04-16T20:42:52.291Z,18.00
2023-04-16T20:45:24.315Z,19.50
2023-04-16T20:47:55.881Z,21.60
2023-04-16T20:50:26.904Z,20.00
2023-04-16T20:52:57.982Z,20.60
2023-04-16T20:55:29.144Z,17.90
2023-04-16T20:58:00.250Z,19.70
2023-04-16T21:00:31.909Z,22.00
2023-04-16T21:03:02.951Z,18.20
2023-04-16T21:05:34.457Z,21.10
2023-04-16T21:08:05.509Z,18.20
2023-04-16T21:10:36.641Z,17.00
2023-04-16T21:13:07.647Z,17.20
2023-04-16T21:15:40.028Z,18.80
2023-04-16T21:18:11.837Z,17.20
2023-04-16T21:20:43.240Z,22.80
2023-04-16T21:23:20.416Z,17.30
2023-04-16T21:25:51.516Z,20.40
2023-04-16T21:28:22.410Z,21.20
2023-04-16T21:30:55.252Z,20.50
2023-04-16T21:33:26.060Z,24.10
2023-04-16T21:35:57.500Z,18.60
2023-04-16T21:38:28.422Z,22.40
2023-04-16T21:40:59.254Z,20.30
2023-04-16T21:43:32.282Z,16.50
2023-04-16T21:46:03.944Z,19.50
2023-04-16T21:48:34.646Z,20.80
2023-04-16T21:51:08.329Z,22.40
2023-04-16T21:53:39.121Z,18.90
2023-04-16T21:56:10.478Z,19.20
2023-04-16T21:58:41.153Z,17.60
2023-04-16T22:01:11.851Z,20.90
2023-04-16T22:03:42.753Z,19.10
2023-04-16T22:06:14.319Z,20.10
2023-04-16T22:08:45.160Z,20.90
2023-04-16T22:11:15.865Z,18.70
2023-04-16T22:13:49.536Z,17.90
2023-04-16T22:16:20.403Z,19.80
2023-04-16T22:18:51.324Z,24.10
2023-04-16T22:21:22.004Z,21.40
2023-04-16T22:23:53.869Z,19.90
2023-04-16T22:26:24.576Z,20.10
2023-04-16T22:28:55.328Z,21.40
2023-04-16T22:31:26.056Z,21.30
2023-04-16T22:33:56.770Z,22.90
2023-04-16T22:36:27.611Z,21.10
2023-04-16T22:38:58.286Z,20.20
2023-04-16T22:41:28.955Z,24.40
2023-04-16T22:43:59.609Z,21.00
2023-04-16T22:46:31.015Z,20.40
2023-04-16T22:49:01.903Z,20.40
2023-04-16T22:51:32.860Z,18.80
2023-04-16T22:54:03.570Z,20.20
2023-04-16T22:56:34.232Z,21.10
2023-04-16T22:59:04.940Z,22.20
2023-04-16T23:01:36.226Z,21.50
2023-04-16T23:04:07.154Z,23.30
2023-04-16T23:06:37.873Z,22.60
2023-04-16T23:09:08.649Z,23.10
2023-04-16T23:11:39.390Z,23.70
2023-04-16T23:14:10.052Z,25.00
2023-04-16T23:16:40.894Z,21.20
2023-04-16T23:19:14.978Z,22.30
2023-04-16T23:21:45.750Z,22.10
2023-04-16T23:24:17.285Z,25.20
2023-04-16T23:26:48.045Z,21.10
2023-04-16T23:29:18.729Z,22.10
2023-04-16T23:31:49.498Z,21.10
2023-04-16T23:34:20.399Z,19.50
2023-04-16T23:36:51.048Z,23.50
2023-04-16T23:39:21.773Z,20.50
2023-04-16T23:41:52.444Z,19.90
2023-04-16T23:44:23.152Z,24.80
2023-04-16T23:46:53.915Z,20.90
2023-04-16T23:49:24.645Z,22.80
2023-04-16T23:51:55.320Z,21.10
2023-04-16T23:54:25.990Z,25.00
2023-04-16T23:56:57.264Z,24.10
2023-04-16T23:59:28.041Z,24.90
